sensor_id;sensor_type;location;lat;lon;timestamp;temperature;humidity
9564;DHT22;4820;50.870;4.702;2023-01-10T00:01:38;6.00;99.90
9564;DHT22;4820;50.870;4.702;2023-01-10T00:04:04;6.10;99.90
9564;DHT22;4820;50.870;4.702;2023-01-10T00:06:30;6.10;99.90
9564;DHT22;4820;50.870;4.702;2023-01-10T00:08:55;6.10;99.90
9564;DHT22;4820;50.870;4.702;2023-01-10T00:11:22;6.20;99.90
9564;DHT22;4820;50.870;4.702;2023-01-10T00:14:06;6.30;99.90
9564;DHT22;4820;50.870;4.702;2023-01-10T00:16:32;6.20;99.90
9564;DHT22;4820;50.870;4.702;2023-01-10T00:18:58;6.30;99.90
9564;DHT22;4820;50.870;4.702;2023-01-10T00:21:24;6.30;99.90
9564;DHT22;4820;50.870;4.702;2023-01-10T00:23:49;6.30;99.90
9564;DHT22;4820;50.870;4.702;2023-01-10T00:26:15;6.30;99.90
9564;DHT22;4820;50.870;4.702;2023-01-10T00:28:41;6.40;99.90
9564;DHT22;4820;50.870;4.702;2023-01-10T00:31:08;6.40;99.90
9564;DHT22;4820;50.870;4.702;2023-01-10T00:33:36;6.50;99.90
9564;DHT22;4820;50.870;4.702;2023-01-10T00:36:05;6.40;99.90
9564;DHT22;4820;50.870;4.702;2023-01-10T00:38:32;6.40;99.90
9564;DHT22;4820;50.870;4.702;2023-01-10T00:40:59;6.40;99.90
9564;DHT22;4820;50.870;4.702;2023-01-10T00:43:25;6.30;99.90
9564;DHT22;4820;50.870;4.702;2023-01-10T00:46:09;6.30;99.90
9564;DHT22;4820;50.870;4.702;2023-01-10T00:48:35;6.30;99.90
9564;DHT22;4820;50.870;4.702;2023-01-10T00:51:02;6.20;99.90
9564;DHT22;4820;50.870;4.702;2023-01-10T00:53:28;6.30;99.90
9564;DHT22;4820;50.870;4.702;2023-01-10T00:55:54;6.20;99.90
9564;DHT22;4820;50.870;4.702;2023-01-10T00:58:21;6.20;99.90
9564;DHT22;4820;50.870;4.702;2023-01-10T01:00:47;6.20;99.90
9564;DHT22;4820;50.870;4.702;2023-01-10T01:03:18;6.20;99.90
9564;DHT22;4820;50.870;4.702;2023-01-10T01:05:45;6.20;99.90
9564;DHT22;4820;50.870;4.702;2023-01-10T01:08:12;6.20;99.90
9564;DHT22;4820;50.870;4.702;2023-01-10T01:10:40;6.20;99.90
9564;DHT22;4820;50.870;4.702;2023-01-10T01:13:09;6.20;99.90
9564;DHT22;4820;50.870;4.702;2023-01-10T01:15:37;6.20;99.90
9564;DHT22;4820;50.870;4.702;2023-01-10T01:18:03;6.20;99.90
9564;DHT22;4820;50.870;4.702;2023-01-10T01:20:30;6.30;99.90
9564;DHT22;4820;50.870;4.702;2023-01-10T01:22:56;6.40;99.90
9564;DHT22;4820;50.870;4.702;2023-01-10T01:25:21;6.40;99.90
9564;DHT22;4820;50.870;4.702;2023-01-10T01:27:47;6.40;99.90
9564;DHT22;4820;50.870;4.702;2023-01-10T01:30:13;6.50;99.90
9564;DHT22;4820;50.870;4.702;2023-01-10T01:32:39;6.50;99.90
9564;DHT22;4820;50.870;4.702;2023-01-10T01:35:06;6.60;99.90
9564;DHT22;4820;50.870;4.702;2023-01-10T01:37:33;6.60;99.90
9564;DHT22;4820;50.870;4.702;2023-01-10T01:39:58;6.60;99.90
9564;DHT22;4820;50.870;4.702;2023-01-10T01:42:27;6.60;99.90
9564;DHT22;4820;50.870;4.702;2023-01-10T01:48:05;6.60;99.90
9564;DHT22;4820;50.870;4.702;2023-01-10T01:50:37;6.60;99.90
9564;DHT22;4820;50.870;4.702;2023-01-10T01:53:11;6.50;99.90
9564;DHT22;4820;50.870;4.702;2023-01-10T01:55:38;6.50;99.90
9564;DHT22;4820;50.870;4.702;2023-01-10T01:58:08;6.50;99.90
9564;DHT22;4820;50.870;4.702;2023-01-10T02:00:37;6.40;99.90
9564;DHT22;4820;50.870;4.702;2023-01-10T02:03:03;6.40;99.90
9564;DHT22;4820;50.870;4.702;2023-01-10T02:05:31;6.40;99.90
9564;DHT22;4820;50.870;4.702;2023-01-10T02:07:59;6.40;99.90
9564;DHT22;4820;50.870;4.702;2023-01-10T02:10:52;6.40;99.90
9564;DHT22;4820;50.870;4.702;2023-01-10T02:13:22;6.30;99.90
9564;DHT22;4820;50.870;4.702;2023-01-10T02:15:49;6.30;99.90
9564;DHT22;4820;50.870;4.702;2023-01-10T02:18:15;6.30;99.90
9564;DHT22;4820;50.870;4.702;2023-01-10T02:21:02;6.30;99.90
9564;DHT22;4820;50.870;4.702;2023-01-10T02:35:16;6.30;99.90
9564;DHT22;4820;50.870;4.702;2023-01-10T02:38:08;6.30;99.90
9564;DHT22;4820;50.870;4.702;2023-01-10T02:41:18;6.30;99.90
9564;DHT22;4820;50.870;4.702;2023-01-10T02:43:55;6.20;99.90
9564;DHT22;4820;50.870;4.702;2023-01-10T02:46:26;6.10;99.90
9564;DHT22;4820;50.870;4.702;2023-01-10T02:48:54;6.10;99.90
9564;DHT22;4820;50.870;4.702;2023-01-10T02:51:26;6.10;99.90
9564;DHT22;4820;50.870;4.702;2023-01-10T03:02:26;6.00;99.90
9564;DHT22;4820;50.870;4.702;2023-01-10T03:05:16;6.00;99.90
9564;DHT22;4820;50.870;4.702;2023-01-10T03:10:51;6.00;99.90
9564;DHT22;4820;50.870;4.702;2023-01-10T03:16:10;5.90;99.90
9564;DHT22;4820;50.870;4.702;2023-01-10T03:18:47;5.90;99.90
9564;DHT22;4820;50.870;4.702;2023-01-10T03:21:17;5.90;99.90
9564;DHT22;4820;50.870;4.702;2023-01-10T03:23:45;5.80;99.90
9564;DHT22;4820;50.870;4.702;2023-01-10T03:26:12;5.80;99.90
9564;DHT22;4820;50.870;4.702;2023-01-10T03:28:51;5.80;99.90
9564;DHT22;4820;50.870;4.702;2023-01-10T03:31:30;5.90;99.90
9564;DHT22;4820;50.870;4.702;2023-01-10T03:33:56;5.90;99.90
9564;DHT22;4820;50.870;4.702;2023-01-10T03:39:15;5.90;99.90
9564;DHT22;4820;50.870;4.702;2023-01-10T03:42:01;5.90;99.90
9564;DHT22;4820;50.870;4.702;2023-01-10T03:44:51;6.00;99.90
9564;DHT22;4820;50.870;4.702;2023-01-10T03:47:23;6.00;99.90
9564;DHT22;4820;50.870;4.702;2023-01-10T03:50:12;6.00;99.90
9564;DHT22;4820;50.870;4.702;2023-01-10T03:52:40;6.00;99.90
9564;DHT22;4820;50.870;4.702;2023-01-10T03:55:09;5.90;99.90
9564;DHT22;4820;50.870;4.702;2023-01-10T03:57:40;5.90;99.90
9564;DHT22;4820;50.870;4.702;2023-01-10T04:00:08;5.90;99.90
9564;DHT22;4820;50.870;4.702;2023-01-10T04:02:35;5.90;99.90
9564;DHT22;4820;50.870;4.702;2023-01-10T04:05:01;5.90;99.90
9564;DHT22;4820;50.870;4.702;2023-01-10T04:07:27;5.90;99.90
9564;DHT22;4820;50.870;4.702;2023-01-10T04:09:52;5.80;99.90
9564;DHT22;4820;50.870;4.702;2023-01-10T04:12:18;5.80;99.90
9564;DHT22;4820;50.870;4.702;2023-01-10T04:14:44;5.80;99.90
9564;DHT22;4820;50.870;4.702;2023-01-10T04:17:14;5.70;99.90
9564;DHT22;4820;50.870;4.702;2023-01-10T04:19:40;5.70;99.90
9564;DHT22;4820;50.870;4.702;2023-01-10T04:22:07;5.60;99.90
9564;DHT22;4820;50.870;4.702;2023-01-10T04:24:33;5.60;99.90
9564;DHT22;4820;50.870;4.702;2023-01-10T04:26:59;5.50;99.90
9564;DHT22;4820;50.870;4.702;2023-01-10T04:29:24;5.50;99.90
9564;DHT22;4820;50.870;4.702;2023-01-10T04:31:51;5.50;99.90
9564;DHT22;4820;50.870;4.702;2023-01-10T04:34:17;5.40;99.90
9564;DHT22;4820;50.870;4.702;2023-01-10T04:36:45;5.40;99.90
9564;DHT22;4820;50.870;4.702;2023-01-10T04:39:11;5.30;99.90
9564;DHT22;4820;50.870;4.702;2023-01-10T04:41:37;5.30;99.90
9564;DHT22;4820;50.870;4.702;2023-01-10T04:44:04;5.30;99.90
9564;DHT22;4820;50.870;4.702;2023-01-10T04:46:30;5.30;99.90
9564;DHT22;4820;50.870;4.702;2023-01-10T04:48:57;5.30;99.90
9564;DHT22;4820;50.870;4.702;2023-01-10T04:51:24;5.30;99.90
9564;DHT22;4820;50.870;4.702;2023-01-10T04:53:50;5.30;99.90
9564;DHT22;4820;50.870;4.702;2023-01-10T04:56:19;5.20;99.90
9564;DHT22;4820;50.870;4.702;2023-01-10T04:58:45;5.20;99.90
9564;DHT22;4820;50.870;4.702;2023-01-10T05:01:13;5.20;99.90
9564;DHT22;4820;50.870;4.702;2023-01-10T05:03:40;5.20;99.90
9564;DHT22;4820;50.870;4.702;2023-01-10T05:06:06;5.20;99.90
9564;DHT22;4820;50.870;4.702;2023-01-10T05:08:32;5.10;99.90
9564;DHT22;4820;50.870;4.702;2023-01-10T05:10:58;5.10;99.90
9564;DHT22;4820;50.870;4.702;2023-01-10T05:13:24;5.10;99.90
9564;DHT22;4820;50.870;4.702;2023-01-10T05:15:54;5.10;99.90
9564;DHT22;4820;50.870;4.702;2023-01-10T05:18:21;5.10;99.90
9564;DHT22;4820;50.870;4.702;2023-01-10T05:20:47;5.10;99.90
9564;DHT22;4820;50.870;4.702;2023-01-10T05:23:12;5.10;99.90
9564;DHT22;4820;50.870;4.702;2023-01-10T05:25:39;5.10;99.90
9564;DHT22;4820;50.870;4.702;2023-01-10T05:28:04;5.10;99.90
9564;DHT22;4820;50.870;4.702;2023-01-10T05:30:30;5.10;99.90
9564;DHT22;4820;50.870;4.702;2023-01-10T05:32:57;5.10;99.90
9564;DHT22;4820;50.870;4.702;2023-01-10T05:35:22;5.00;99.90
9564;DHT22;4820;50.870;4.702;2023-01-10T05:37:48;5.00;99.90
9564;DHT22;4820;50.870;4.702;2023-01-10T05:40:14;5.00;99.90
9564;DHT22;4820;50.870;4.702;2023-01-10T05:42:40;5.00;99.90
9564;DHT22;4820;50.870;4.702;2023-01-10T05:45:06;5.00;99.90
9564;DHT22;4820;50.870;4.702;2023-01-10T05:47:32;5.00;99.90
9564;DHT22;4820;50.870;4.702;2023-01-10T05:49:58;5.00;99.90
9564;DHT22;4820;50.870;4.702;2023-01-10T05:52:23;5.00;99.90
9564;DHT22;4820;50.870;4.702;2023-01-10T05:54:49;4.90;99.90
9564;DHT22;4820;50.870;4.702;2023-01-10T05:57:15;4.90;99.90
9564;DHT22;4820;50.870;4.702;2023-01-10T05:59:40;4.90;99.90
9564;DHT22;4820;50.870;4.702;2023-01-10T06:02:06;4.90;99.90
9564;DHT22;4820;50.870;4.702;2023-01-10T06:04:32;4.80;99.90
9564;DHT22;4820;50.870;4.702;2023-01-10T06:06:57;4.80;99.90
9564;DHT22;4820;50.870;4.702;2023-01-10T06:09:23;4.80;99.90
9564;DHT22;4820;50.870;4.702;2023-01-10T06:11:49;4.80;99.90
9564;DHT22;4820;50.870;4.702;2023-01-10T06:14:14;4.70;99.90
9564;DHT22;4820;50.870;4.702;2023-01-10T06:16:46;4.70;99.90
9564;DHT22;4820;50.870;4.702;2023-01-10T06:19:11;4.70;99.90
9564;DHT22;4820;50.870;4.702;2023-01-10T06:21:37;4.70;99.90
9564;DHT22;4820;50.870;4.702;2023-01-10T06:24:05;4.70;99.90
9564;DHT22;4820;50.870;4.702;2023-01-10T06:26:31;4.60;99.90
9564;DHT22;4820;50.870;4.702;2023-01-10T06:28:57;4.60;99.90
9564;DHT22;4820;50.870;4.702;2023-01-10T06:31:24;4.60;99.90
9564;DHT22;4820;50.870;4.702;2023-01-10T06:33:50;4.60;99.90
9564;DHT22;4820;50.870;4.702;2023-01-10T06:36:16;4.60;99.90
9564;DHT22;4820;50.870;4.702;2023-01-10T06:38:43;4.60;99.90
9564;DHT22;4820;50.870;4.702;2023-01-10T06:41:09;4.60;99.90
9564;DHT22;4820;50.870;4.702;2023-01-10T06:43:42;4.60;99.90
9564;DHT22;4820;50.870;4.702;2023-01-10T06:46:10;4.60;99.90
9564;DHT22;4820;50.870;4.702;2023-01-10T06:48:38;4.60;99.90
9564;DHT22;4820;50.870;4.702;2023-01-10T06:51:05;4.60;99.90
9564;DHT22;4820;50.870;4.702;2023-01-10T06:53:31;4.60;99.90
9564;DHT22;4820;50.870;4.702;2023-01-10T06:55:57;4.60;99.90
9564;DHT22;4820;50.870;4.702;2023-01-10T06:58:23;4.60;99.90
9564;DHT22;4820;50.870;4.702;2023-01-10T07:00:49;4.60;99.90
9564;DHT22;4820;50.870;4.702;2023-01-10T07:03:15;4.60;99.90
9564;DHT22;4820;50.870;4.702;2023-01-10T07:05:40;4.60;99.90
9564;DHT22;4820;50.870;4.702;2023-01-10T07:08:07;4.60;99.90
9564;DHT22;4820;50.870;4.702;2023-01-10T07:10:33;4.60;99.90
9564;DHT22;4820;50.870;4.702;2023-01-10T07:12:59;4.60;99.90
9564;DHT22;4820;50.870;4.702;2023-01-10T07:15:28;4.60;99.90
9564;DHT22;4820;50.870;4.702;2023-01-10T07:17:56;4.60;99.90
9564;DHT22;4820;50.870;4.702;2023-01-10T07:20:23;4.60;99.90
9564;DHT22;4820;50.870;4.702;2023-01-10T07:22:54;4.60;99.90
9564;DHT22;4820;50.870;4.702;2023-01-10T07:25:22;4.60;99.90
9564;DHT22;4820;50.870;4.702;2023-01-10T07:27:48;4.60;99.90
9564;DHT22;4820;50.870;4.702;2023-01-10T07:30:14;4.60;99.90
9564;DHT22;4820;50.870;4.702;2023-01-10T07:32:40;4.70;99.90
9564;DHT22;4820;50.870;4.702;2023-01-10T07:35:06;4.60;99.90
9564;DHT22;4820;50.870;4.702;2023-01-10T07:37:31;4.70;99.90
9564;DHT22;4820;50.870;4.702;2023-01-10T07:39:58;4.70;99.90
9564;DHT22;4820;50.870;4.702;2023-01-10T07:42:25;4.70;99.90
9564;DHT22;4820;50.870;4.702;2023-01-10T07:44:50;4.70;99.90
9564;DHT22;4820;50.870;4.702;2023-01-10T07:47:16;4.80;99.90
9564;DHT22;4820;50.870;4.702;2023-01-10T07:49:42;4.70;99.90
9564;DHT22;4820;50.870;4.702;2023-01-10T07:52:08;4.80;99.90
9564;DHT22;4820;50.870;4.702;2023-01-10T07:54:35;4.70;99.90
9564;DHT22;4820;50.870;4.702;2023-01-10T07:57:01;4.70;99.90
9564;DHT22;4820;50.870;4.702;2023-01-10T07:59:26;4.80;99.90
9564;DHT22;4820;50.870;4.702;2023-01-10T08:01:53;4.80;99.90
9564;DHT22;4820;50.870;4.702;2023-01-10T08:04:19;4.80;99.90
9564;DHT22;4820;50.870;4.702;2023-01-10T08:06:45;4.70;99.90
9564;DHT22;4820;50.870;4.702;2023-01-10T08:09:11;4.90;99.90
9564;DHT22;4820;50.870;4.702;2023-01-10T08:11:36;4.90;99.90
9564;DHT22;4820;50.870;4.702;2023-01-10T08:14:02;4.90;99.90
9564;DHT22;4820;50.870;4.702;2023-01-10T08:16:27;4.90;99.90
9564;DHT22;4820;50.870;4.702;2023-01-10T08:18:53;5.00;99.90
9564;DHT22;4820;50.870;4.702;2023-01-10T08:21:19;5.00;99.90
9564;DHT22;4820;50.870;4.702;2023-01-10T08:23:44;5.00;99.90
9564;DHT22;4820;50.870;4.702;2023-01-10T08:26:10;5.10;99.90
9564;DHT22;4820;50.870;4.702;2023-01-10T08:28:36;5.10;99.90
9564;DHT22;4820;50.870;4.702;2023-01-10T08:31:08;5.20;99.90
9564;DHT22;4820;50.870;4.702;2023-01-10T08:33:35;5.20;99.90
9564;DHT22;4820;50.870;4.702;2023-01-10T08:36:01;5.30;99.90
9564;DHT22;4820;50.870;4.702;2023-01-10T08:38:27;5.30;99.90
9564;DHT22;4820;50.870;4.702;2023-01-10T08:40:56;5.40;99.90
9564;DHT22;4820;50.870;4.702;2023-01-10T08:43:22;5.40;99.90
9564;DHT22;4820;50.870;4.702;2023-01-10T08:45:48;5.50;99.90
9564;DHT22;4820;50.870;4.702;2023-01-10T08:48:14;5.50;99.90
9564;DHT22;4820;50.870;4.702;2023-01-10T08:50:40;5.50;99.90
9564;DHT22;4820;50.870;4.702;2023-01-10T08:53:05;5.50;99.90
9564;DHT22;4820;50.870;4.702;2023-01-10T08:55:32;5.50;99.90
9564;DHT22;4820;50.870;4.702;2023-01-10T08:58:00;5.60;99.90
9564;DHT22;4820;50.870;4.702;2023-01-10T09:00:26;5.60;99.90
9564;DHT22;4820;50.870;4.702;2023-01-10T09:02:52;5.60;99.90
9564;DHT22;4820;50.870;4.702;2023-01-10T09:05:19;5.70;99.90
9564;DHT22;4820;50.870;4.702;2023-01-10T09:07:44;5.80;99.90
9564;DHT22;4820;50.870;4.702;2023-01-10T09:10:13;5.80;99.90
9564;DHT22;4820;50.870;4.702;2023-01-10T09:12:38;5.80;99.90
9564;DHT22;4820;50.870;4.702;2023-01-10T09:15:20;5.80;99.90
9564;DHT22;4820;50.870;4.702;2023-01-10T09:17:47;5.80;99.90
9564;DHT22;4820;50.870;4.702;2023-01-10T09:20:15;5.90;99.90
9564;DHT22;4820;50.870;4.702;2023-01-10T09:22:42;5.90;99.90
9564;DHT22;4820;50.870;4.702;2023-01-10T09:25:07;5.90;99.90
9564;DHT22;4820;50.870;4.702;2023-01-10T09:27:34;5.90;99.90
9564;DHT22;4820;50.870;4.702;2023-01-10T09:30:00;6.00;99.90
9564;DHT22;4820;50.870;4.702;2023-01-10T09:32:27;6.00;99.90
9564;DHT22;4820;50.870;4.702;2023-01-10T09:34:53;6.10;99.90
9564;DHT22;4820;50.870;4.702;2023-01-10T09:37:19;6.10;99.90
9564;DHT22;4820;50.870;4.702;2023-01-10T09:39:44;6.10;99.90
9564;DHT22;4820;50.870;4.702;2023-01-10T09:47:57;6.30;99.90
9564;DHT22;4820;50.870;4.702;2023-01-10T09:50:34;6.30;99.90
9564;DHT22;4820;50.870;4.702;2023-01-10T09:53:24;6.50;99.90
9564;DHT22;4820;50.870;4.702;2023-01-10T09:55:54;6.40;99.90
9564;DHT22;4820;50.870;4.702;2023-01-10T09:58:24;6.50;99.90
9564;DHT22;4820;50.870;4.702;2023-01-10T10:01:14;6.50;99.90
9564;DHT22;4820;50.870;4.702;2023-01-10T10:04:13;6.60;99.90
9564;DHT22;4820;50.870;4.702;2023-01-10T10:06:41;6.60;99.90
9564;DHT22;4820;50.870;4.702;2023-01-10T10:09:15;6.70;99.90
9564;DHT22;4820;50.870;4.702;2023-01-10T10:11:45;6.70;99.90
9564;DHT22;4820;50.870;4.702;2023-01-10T10:22:40;6.90;99.90
9564;DHT22;4820;50.870;4.702;2023-01-10T10:28:37;7.00;99.90
9564;DHT22;4820;50.870;4.702;2023-01-10T10:34:24;7.10;99.90
9564;DHT22;4820;50.870;4.702;2023-01-10T10:37:00;7.10;99.90
9564;DHT22;4820;50.870;4.702;2023-01-10T10:39:44;7.20;99.90
9564;DHT22;4820;50.870;4.702;2023-01-10T10:42:14;7.20;99.90
9564;DHT22;4820;50.870;4.702;2023-01-10T10:47:19;7.30;99.90
9564;DHT22;4820;50.870;4.702;2023-01-10T10:49:59;7.40;99.90
9564;DHT22;4820;50.870;4.702;2023-01-10T10:52:28;7.40;99.90
9564;DHT22;4820;50.870;4.702;2023-01-10T10:54:58;7.50;99.90
9564;DHT22;4820;50.870;4.702;2023-01-10T10:57:27;7.50;99.90
9564;DHT22;4820;50.870;4.702;2023-01-10T10:59:54;7.60;99.90
9564;DHT22;4820;50.870;4.702;2023-01-10T11:04:52;7.70;99.90
9564;DHT22;4820;50.870;4.702;2023-01-10T11:07:21;7.70;99.90
9564;DHT22;4820;50.870;4.702;2023-01-10T11:09:49;7.80;99.90
9564;DHT22;4820;50.870;4.702;2023-01-10T11:12:37;7.80;99.90
9564;DHT22;4820;50.870;4.702;2023-01-10T11:15:06;7.80;99.90
9564;DHT22;4820;50.870;4.702;2023-01-10T11:17:32;7.70;99.90
9564;DHT22;4820;50.870;4.702;2023-01-10T11:20:15;7.70;99.90
9564;DHT22;4820;50.870;4.702;2023-01-10T11:22:50;7.70;99.90
9564;DHT22;4820;50.870;4.702;2023-01-10T11:25:20;7.70;99.90
9564;DHT22;4820;50.870;4.702;2023-01-10T11:27:51;7.70;99.90
9564;DHT22;4820;50.870;4.702;2023-01-10T11:30:24;7.70;99.90
9564;DHT22;4820;50.870;4.702;2023-01-10T11:32:59;7.70;99.90
9564;DHT22;4820;50.870;4.702;2023-01-10T11:41:01;7.60;99.90
9564;DHT22;4820;50.870;4.702;2023-01-10T11:46:02;7.70;99.90
9564;DHT22;4820;50.870;4.702;2023-01-10T11:51:33;7.80;99.90
9564;DHT22;4820;50.870;4.702;2023-01-10T11:54:18;7.80;99.90
9564;DHT22;4820;50.870;4.702;2023-01-10T11:57:06;7.90;99.90
9564;DHT22;4820;50.870;4.702;2023-01-10T11:59:32;7.90;99.90
9564;DHT22;4820;50.870;4.702;2023-01-10T12:02:12;8.00;99.90
9564;DHT22;4820;50.870;4.702;2023-01-10T12:04:44;8.10;99.90
9564;DHT22;4820;50.870;4.702;2023-01-10T12:07:12;8.10;99.90
9564;DHT22;4820;50.870;4.702;2023-01-10T12:09:41;8.10;99.90
9564;DHT22;4820;50.870;4.702;2023-01-10T12:14:42;8.20;99.90
9564;DHT22;4820;50.870;4.702;2023-01-10T12:17:19;8.20;99.90
9564;DHT22;4820;50.870;4.702;2023-01-10T12:19:45;8.30;99.90
9564;DHT22;4820;50.870;4.702;2023-01-10T12:22:14;8.30;99.90
9564;DHT22;4820;50.870;4.702;2023-01-10T12:24:43;8.30;99.90
9564;DHT22;4820;50.870;4.702;2023-01-10T12:27:15;8.40;99.90
9564;DHT22;4820;50.870;4.702;2023-01-10T12:30:22;8.30;99.90
9564;DHT22;4820;50.870;4.702;2023-01-10T12:32:54;8.30;99.90
9564;DHT22;4820;50.870;4.702;2023-01-10T12:35:47;8.30;99.90
9564;DHT22;4820;50.870;4.702;2023-01-10T12:41:07;8.30;99.90
9564;DHT22;4820;50.870;4.702;2023-01-10T12:43:39;8.30;99.90
9564;DHT22;4820;50.870;4.702;2023-01-10T12:46:39;8.40;99.90
9564;DHT22;4820;50.870;4.702;2023-01-10T12:49:20;8.30;99.90
9564;DHT22;4820;50.870;4.702;2023-01-10T12:51:48;8.30;99.90
9564;DHT22;4820;50.870;4.702;2023-01-10T12:54:22;8.30;99.90
9564;DHT22;4820;50.870;4.702;2023-01-10T12:56:53;8.30;99.90
9564;DHT22;4820;50.870;4.702;2023-01-10T12:59:26;8.20;99.90
9564;DHT22;4820;50.870;4.702;2023-01-10T13:01:56;8.20;99.90
9564;DHT22;4820;50.870;4.702;2023-01-10T13:04:27;8.20;99.90
9564;DHT22;4820;50.870;4.702;2023-01-10T13:06:54;8.20;99.90
9564;DHT22;4820;50.870;4.702;2023-01-10T13:09:24;8.20;99.90
9564;DHT22;4820;50.870;4.702;2023-01-10T13:22:46;8.20;99.90
9564;DHT22;4820;50.870;4.702;2023-01-10T13:25:32;8.20;99.90
9564;DHT22;4820;50.870;4.702;2023-01-10T13:28:27;8.20;99.90
9564;DHT22;4820;50.870;4.702;2023-01-10T13:30:56;8.10;99.90
9564;DHT22;4820;50.870;4.702;2023-01-10T13:33:25;8.00;99.90
9564;DHT22;4820;50.870;4.702;2023-01-10T13:35:55;7.90;99.90
9564;DHT22;4820;50.870;4.702;2023-01-10T13:41:10;7.80;99.90
9564;DHT22;4820;50.870;4.702;2023-01-10T13:44:07;7.70;99.90
9564;DHT22;4820;50.870;4.702;2023-01-10T13:46:38;7.70;99.90
9564;DHT22;4820;50.870;4.702;2023-01-10T13:51:37;7.60;99.90
9564;DHT22;4820;50.870;4.702;2023-01-10T13:59:08;7.50;99.90
9564;DHT22;4820;50.870;4.702;2023-01-10T14:01:53;7.50;99.90
9564;DHT22;4820;50.870;4.702;2023-01-10T14:04:51;7.50;99.90
9564;DHT22;4820;50.870;4.702;2023-01-10T14:07:46;7.40;99.90
9564;DHT22;4820;50.870;4.702;2023-01-10T14:10:20;7.40;99.90
9564;DHT22;4820;50.870;4.702;2023-01-10T14:15:26;7.30;99.90
9564;DHT22;4820;50.870;4.702;2023-01-10T14:18:03;7.30;99.90
9564;DHT22;4820;50.870;4.702;2023-01-10T14:20:31;7.20;99.90
9564;DHT22;4820;50.870;4.702;2023-01-10T14:23:04;7.20;99.90
9564;DHT22;4820;50.870;4.702;2023-01-10T14:25:35;7.20;99.90
9564;DHT22;4820;50.870;4.702;2023-01-10T14:28:03;7.20;99.90
9564;DHT22;4820;50.870;4.702;2023-01-10T14:30:36;7.10;99.90
9564;DHT22;4820;50.870;4.702;2023-01-10T14:33:22;7.10;99.90
9564;DHT22;4820;50.870;4.702;2023-01-10T14:35:55;7.10;99.90
9564;DHT22;4820;50.870;4.702;2023-01-10T14:38:25;7.10;99.90
9564;DHT22;4820;50.870;4.702;2023-01-10T14:40:57;7.10;99.90
9564;DHT22;4820;50.870;4.702;2023-01-10T14:43:29;7.10;99.90
9564;DHT22;4820;50.870;4.702;2023-01-10T14:46:11;7.00;99.90
9564;DHT22;4820;50.870;4.702;2023-01-10T14:48:46;7.00;99.90
9564;DHT22;4820;50.870;4.702;2023-01-10T14:51:22;7.00;99.90
9564;DHT22;4820;50.870;4.702;2023-01-10T14:54:00;7.00;99.90
9564;DHT22;4820;50.870;4.702;2023-01-10T14:56:41;7.00;99.90
9564;DHT22;4820;50.870;4.702;2023-01-10T15:02:21;7.00;99.90
9564;DHT22;4820;50.870;4.702;2023-01-10T15:04:55;7.00;99.90
9564;DHT22;4820;50.870;4.702;2023-01-10T15:07:22;7.00;99.90
9564;DHT22;4820;50.870;4.702;2023-01-10T15:09:50;7.00;99.90
9564;DHT22;4820;50.870;4.702;2023-01-10T15:12:16;7.00;99.90
9564;DHT22;4820;50.870;4.702;2023-01-10T15:14:43;7.00;99.90
9564;DHT22;4820;50.870;4.702;2023-01-10T15:17:16;7.10;99.90
9564;DHT22;4820;50.870;4.702;2023-01-10T15:19:45;7.00;99.90
9564;DHT22;4820;50.870;4.702;2023-01-10T15:22:28;7.00;99.90
9564;DHT22;4820;50.870;4.702;2023-01-10T15:25:03;7.00;99.90
9564;DHT22;4820;50.870;4.702;2023-01-10T15:27:33;7.00;99.90
9564;DHT22;4820;50.870;4.702;2023-01-10T15:30:06;7.00;99.90
9564;DHT22;4820;50.870;4.702;2023-01-10T15:32:35;7.00;99.90
9564;DHT22;4820;50.870;4.702;2023-01-10T15:35:06;7.00;99.90
9564;DHT22;4820;50.870;4.702;2023-01-10T15:37:37;7.00;99.90
9564;DHT22;4820;50.870;4.702;2023-01-10T15:40:19;7.00;99.90
9564;DHT22;4820;50.870;4.702;2023-01-10T15:42:45;6.90;99.90
9564;DHT22;4820;50.870;4.702;2023-01-10T15:45:28;7.00;99.90
9564;DHT22;4820;50.870;4.702;2023-01-10T15:48:03;7.00;99.90
9564;DHT22;4820;50.870;4.702;2023-01-10T15:50:36;7.00;99.90
9564;DHT22;4820;50.870;4.702;2023-01-10T15:53:08;7.00;99.90
9564;DHT22;4820;50.870;4.702;2023-01-10T15:58:22;7.00;99.90
9564;DHT22;4820;50.870;4.702;2023-01-10T16:00:52;7.00;99.90
9564;DHT22;4820;50.870;4.702;2023-01-10T16:05:56;7.00;99.90
9564;DHT22;4820;50.870;4.702;2023-01-10T16:08:26;7.00;99.90
9564;DHT22;4820;50.870;4.702;2023-01-10T16:10:58;7.00;99.90
9564;DHT22;4820;50.870;4.702;2023-01-10T16:13:24;7.00;99.90
9564;DHT22;4820;50.870;4.702;2023-01-10T16:15:57;7.10;99.90
9564;DHT22;4820;50.870;4.702;2023-01-10T16:18:23;7.00;99.90
9564;DHT22;4820;50.870;4.702;2023-01-10T16:20:52;7.00;99.90
9564;DHT22;4820;50.870;4.702;2023-01-10T16:23:25;7.10;99.90
9564;DHT22;4820;50.870;4.702;2023-01-10T16:25:56;7.10;99.90
9564;DHT22;4820;50.870;4.702;2023-01-10T16:28:22;7.10;99.90
9564;DHT22;4820;50.870;4.702;2023-01-10T16:30:48;7.10;99.90
9564;DHT22;4820;50.870;4.702;2023-01-10T16:33:21;7.20;99.90
9564;DHT22;4820;50.870;4.702;2023-01-10T16:35:59;7.20;99.90
9564;DHT22;4820;50.870;4.702;2023-01-10T16:38:27;7.20;99.90
9564;DHT22;4820;50.870;4.702;2023-01-10T16:40:56;7.20;99.90
9564;DHT22;4820;50.870;4.702;2023-01-10T16:43:22;7.30;99.90
9564;DHT22;4820;50.870;4.702;2023-01-10T16:45:55;7.30;99.90
9564;DHT22;4820;50.870;4.702;2023-01-10T16:48:29;7.30;99.90
9564;DHT22;4820;50.870;4.702;2023-01-10T16:51:20;7.30;99.90
9564;DHT22;4820;50.870;4.702;2023-01-10T16:53:47;7.30;99.90
9564;DHT22;4820;50.870;4.702;2023-01-10T16:56:20;7.40;99.90
9564;DHT22;4820;50.870;4.702;2023-01-10T16:58:47;7.40;99.90
9564;DHT22;4820;50.870;4.702;2023-01-10T17:01:18;7.40;99.90
9564;DHT22;4820;50.870;4.702;2023-01-10T17:03:44;7.50;99.90
9564;DHT22;4820;50.870;4.702;2023-01-10T17:06:12;7.50;99.90
9564;DHT22;4820;50.870;4.702;2023-01-10T17:08:38;7.50;99.90
9564;DHT22;4820;50.870;4.702;2023-01-10T17:11:07;7.60;99.90
9564;DHT22;4820;50.870;4.702;2023-01-10T17:13:40;7.60;99.90
9564;DHT22;4820;50.870;4.702;2023-01-10T17:16:07;7.70;99.90
9564;DHT22;4820;50.870;4.702;2023-01-10T17:18:37;7.70;99.90
9564;DHT22;4820;50.870;4.702;2023-01-10T17:21:03;7.70;99.90
9564;DHT22;4820;50.870;4.702;2023-01-10T17:23:29;7.80;99.90
9564;DHT22;4820;50.870;4.702;2023-01-10T17:26:00;7.80;99.90
9564;DHT22;4820;50.870;4.702;2023-01-10T17:28:27;7.80;99.90
9564;DHT22;4820;50.870;4.702;2023-01-10T17:30:53;7.80;99.90
9564;DHT22;4820;50.870;4.702;2023-01-10T17:33:19;7.90;99.90
9564;DHT22;4820;50.870;4.702;2023-01-10T17:35:45;7.90;99.90
9564;DHT22;4820;50.870;4.702;2023-01-10T17:38:14;7.90;99.90
9564;DHT22;4820;50.870;4.702;2023-01-10T17:40:44;7.90;99.90
9564;DHT22;4820;50.870;4.702;2023-01-10T17:43:11;7.90;99.90
9564;DHT22;4820;50.870;4.702;2023-01-10T17:45:45;8.00;99.90
9564;DHT22;4820;50.870;4.702;2023-01-10T17:48:12;8.00;99.90
9564;DHT22;4820;50.870;4.702;2023-01-10T17:50:41;8.10;99.90
9564;DHT22;4820;50.870;4.702;2023-01-10T17:53:07;8.10;99.90
9564;DHT22;4820;50.870;4.702;2023-01-10T17:55:34;8.20;99.90
9564;DHT22;4820;50.870;4.702;2023-01-10T17:57:59;8.20;99.90
9564;DHT22;4820;50.870;4.702;2023-01-10T18:00:28;8.10;99.90
9564;DHT22;4820;50.870;4.702;2023-01-10T18:02:55;8.20;99.90
9564;DHT22;4820;50.870;4.702;2023-01-10T18:05:21;8.20;99.90
9564;DHT22;4820;50.870;4.702;2023-01-10T18:07:46;8.20;99.90
9564;DHT22;4820;50.870;4.702;2023-01-10T18:10:12;8.20;99.90
9564;DHT22;4820;50.870;4.702;2023-01-10T18:12:38;8.20;99.90
9564;DHT22;4820;50.870;4.702;2023-01-10T18:15:04;8.20;99.90
9564;DHT22;4820;50.870;4.702;2023-01-10T18:17:30;8.20;99.90
9564;DHT22;4820;50.870;4.702;2023-01-10T18:19:56;8.20;99.90
9564;DHT22;4820;50.870;4.702;2023-01-10T18:22:22;8.20;99.90